createdAt,value
2022-08-20T00:02:50.930Z,7.88
2022-08-20T00:08:22.415Z,5.40
2022-08-20T00:13:58.710Z,8.05
2022-08-20T00:19:29.863Z,8.57
2022-08-20T00:25:00.826Z,6.95
2022-08-20T00:30:32.530Z,8.52
2022-08-20T00:36:07.346Z,9.20
2022-08-20T00:41:38.480Z,6.55
2022-08-20T00:47:09.721Z,10.20
2022-08-20T00:52:48.610Z,6.97
2022-08-20T00:58:21.923Z,8.63
2022-08-20T01:03:57.447Z,7.33
2022-08-20T01:09:50.597Z,6.40
2022-08-20T01:15:26.805Z,6.22
2022-08-20T01:21:05.023Z,6.57
2022-08-20T01:26:43.547Z,7.88
2022-08-20T01:32:14.421Z,9.80
2022-08-20T01:37:45.781Z,6.55
2022-08-20T01:43:17.257Z,7.85
2022-08-20T01:48:49.424Z,5.43
2022-08-20T01:54:21.562Z,7.00
2022-08-20T01:59:52.911Z,6.03
2022-08-20T02:05:24.155Z,5.45
2022-08-20T02:11:01.354Z,5.63
2022-08-20T02:16:36.874Z,7.00
2022-08-20T02:22:41.021Z,5.75
2022-08-20T02:28:21.840Z,7.70
2022-08-20T02:34:22.306Z,5.13
2022-08-20T02:39:46.000Z,5.47
2022-08-20T02:45:19.009Z,7.07
2022-08-20T02:50:54.449Z,7.35
2022-08-20T02:56:25.590Z,5.47
2022-08-20T03:02:00.066Z,5.75
2022-08-20T03:07:32.221Z,4.53
2022-08-20T03:13:04.921Z,5.40
2022-08-20T03:18:42.678Z,5.22
2022-08-20T03:24:15.643Z,6.53
2022-08-20T03:29:46.838Z,7.15
2022-08-20T03:35:20.576Z,4.93
2022-08-20T03:40:52.212Z,4.90
2022-08-20T03:46:24.080Z,5.45
2022-08-20T03:51:58.231Z,5.82
2022-08-20T03:57:29.999Z,4.50
2022-08-20T04:03:01.666Z,4.35
2022-08-20T04:08:33.243Z,4.80
2022-08-20T04:14:04.857Z,4.65
2022-08-20T04:19:37.273Z,6.60
2022-08-20T04:25:15.927Z,4.50
2022-08-20T04:30:51.569Z,4.03
2022-08-20T04:36:23.329Z,4.30
2022-08-20T04:41:54.501Z,4.32
2022-08-20T04:47:34.479Z,4.00
2022-08-20T04:53:09.744Z,3.72
2022-08-20T04:58:41.383Z,3.65
2022-08-20T05:04:12.223Z,4.18
2022-08-20T05:09:44.168Z,3.65
2022-08-20T05:15:15.873Z,2.90
2022-08-20T05:20:48.667Z,3.23
2022-08-20T05:26:20.399Z,2.45
2022-08-20T05:31:51.900Z,2.72
2022-08-20T05:37:23.256Z,2.53
2022-08-20T05:42:57.193Z,3.30
2022-08-20T05:48:28.504Z,2.38
2022-08-20T05:53:59.958Z,2.33
2022-08-20T05:59:31.434Z,5.38
2022-08-20T06:05:02.749Z,2.67
2022-08-20T06:10:34.484Z,3.78
2022-08-20T06:16:06.946Z,4.40
2022-08-20T06:21:41.275Z,2.78
2022-08-20T06:27:15.030Z,4.33
2022-08-20T06:32:46.305Z,2.30
2022-08-20T06:38:17.516Z,2.67
2022-08-20T06:43:48.694Z,2.90
2022-08-20T06:49:19.922Z,2.40
2022-08-20T06:54:51.227Z,2.88
2022-08-20T07:00:22.469Z,2.28
2022-08-20T07:05:53.765Z,2.20
2022-08-20T07:11:28.094Z,3.50
2022-08-20T07:17:03.472Z,1.90
2022-08-20T07:22:37.478Z,2.50
2022-08-20T07:28:20.079Z,3.25
2022-08-20T07:33:51.295Z,3.00
2022-08-20T07:39:24.830Z,3.28
2022-08-20T07:44:56.329Z,2.45
2022-08-20T07:50:27.432Z,2.25
2022-08-20T07:55:59.451Z,2.10
2022-08-20T08:07:03.247Z,2.58
2022-08-20T08:12:37.714Z,2.78
2022-08-20T08:18:12.328Z,4.10
2022-08-20T08:23:45.138Z,5.28
2022-08-20T08:29:16.838Z,2.22
2022-08-20T08:34:48.347Z,2.10
2022-08-20T08:40:19.777Z,3.78
2022-08-20T08:45:58.076Z,2.73
2022-08-20T08:51:42.233Z,2.88
2022-08-20T08:57:13.736Z,2.60
2022-08-20T09:03:04.834Z,3.03
2022-08-20T09:08:48.049Z,3.30
2022-08-20T09:14:19.668Z,2.40
2022-08-20T09:19:52.716Z,1.70
2022-08-20T09:25:24.361Z,3.65
2022-08-20T09:30:55.895Z,2.23
2022-08-20T09:36:32.574Z,3.97
2022-08-20T09:42:13.388Z,5.10
2022-08-20T09:47:54.979Z,3.00
2022-08-20T09:53:28.831Z,3.15
2022-08-20T09:59:02.761Z,2.70
2022-08-20T10:04:34.384Z,2.63
2022-08-20T10:10:08.331Z,2.63
2022-08-20T10:15:39.713Z,3.00
2022-08-20T10:21:13.354Z,2.35
2022-08-20T10:26:45.197Z,2.20
2022-08-20T10:32:17.367Z,3.17
2022-08-20T10:37:48.430Z,1.80
2022-08-20T10:43:19.648Z,2.30
2022-08-20T10:48:50.601Z,2.20
2022-08-20T10:54:21.804Z,2.10
2022-08-20T10:59:55.103Z,1.70
2022-08-20T11:05:26.217Z,1.90
2022-08-20T11:10:57.446Z,2.03
2022-08-20T11:16:28.444Z,2.22
2022-08-20T11:21:59.614Z,1.70
2022-08-20T11:27:39.279Z,2.25
2022-08-20T11:33:10.267Z,1.70
2022-08-20T11:38:41.487Z,2.75
2022-08-20T11:44:20.756Z,1.58
2022-08-20T11:50:04.424Z,1.50
2022-08-20T11:55:36.251Z,2.67
2022-08-20T12:06:39.077Z,1.45
2022-08-20T12:12:10.864Z,2.03
2022-08-20T12:17:44.891Z,1.50
2022-08-20T12:23:15.814Z,1.77
2022-08-20T12:28:47.127Z,2.05
2022-08-20T12:34:18.288Z,1.40
2022-08-20T12:39:52.630Z,1.63
2022-08-20T12:45:24.221Z,1.90
2022-08-20T12:50:55.469Z,2.30
2022-08-20T12:56:26.388Z,2.72
2022-08-20T13:01:57.837Z,1.75
2022-08-20T13:07:46.886Z,1.70
2022-08-20T13:13:20.318Z,2.03
2022-08-20T13:18:52.057Z,1.65
2022-08-20T13:24:23.413Z,2.28
2022-08-20T13:29:58.556Z,3.20
2022-08-20T13:35:30.753Z,4.05
2022-08-20T13:41:01.583Z,2.13
2022-08-20T13:46:33.058Z,2.35
2022-08-20T13:52:04.154Z,2.63
2022-08-20T13:57:35.432Z,3.10
2022-08-20T14:03:07.241Z,1.85
2022-08-20T14:08:38.378Z,3.60
2022-08-20T14:14:09.839Z,5.45
2022-08-20T14:19:41.042Z,3.13
2022-08-20T14:25:14.184Z,3.33
2022-08-20T14:30:46.733Z,3.60
2022-08-20T14:36:24.550Z,3.35
2022-08-20T14:41:55.375Z,2.92
2022-08-20T14:47:28.058Z,2.38
2022-08-20T14:58:30.374Z,2.60
2022-08-20T15:04:01.492Z,2.60
2022-08-20T15:09:35.004Z,2.90
2022-08-20T15:15:15.861Z,2.85
2022-08-20T15:20:47.351Z,2.88
2022-08-20T15:26:18.374Z,2.75
2022-08-20T15:31:49.318Z,3.08
2022-08-20T15:37:22.426Z,2.47
2022-08-20T15:42:53.732Z,4.05
2022-08-20T15:48:37.231Z,3.47
2022-08-20T15:54:18.947Z,3.03
2022-08-20T16:00:11.603Z,3.33
2022-08-20T16:05:52.202Z,3.50
2022-08-20T16:11:27.022Z,3.72
2022-08-20T16:17:10.360Z,2.90
2022-08-20T16:28:28.237Z,2.75
2022-08-20T16:34:33.456Z,2.97
2022-08-20T16:40:07.333Z,2.80
2022-08-20T16:46:06.923Z,4.32
2022-08-20T16:51:50.924Z,3.50
2022-08-20T16:57:22.880Z,3.20
2022-08-20T17:02:59.802Z,3.22
2022-08-20T17:08:36.768Z,3.45
2022-08-20T17:14:14.107Z,3.00
2022-08-20T17:19:53.213Z,3.08
2022-08-20T17:25:33.521Z,3.10
2022-08-20T17:31:04.500Z,4.13
2022-08-20T17:36:36.028Z,4.30
2022-08-20T17:42:09.953Z,7.00
2022-08-20T17:47:42.446Z,3.85
2022-08-20T17:53:23.815Z,5.20
2022-08-20T17:59:03.341Z,3.10
2022-08-20T18:04:36.850Z,3.03
2022-08-20T18:10:21.769Z,4.57
2022-08-20T18:15:58.280Z,4.70
2022-08-20T18:21:50.570Z,5.40
2022-08-20T18:27:22.893Z,4.10
2022-08-20T18:33:07.335Z,3.63
2022-08-20T18:38:44.264Z,3.80
2022-08-20T18:44:30.662Z,6.93
2022-08-20T18:50:17.292Z,5.55
2022-08-20T18:56:14.594Z,3.15
2022-08-20T19:01:49.286Z,5.18
2022-08-20T19:07:20.770Z,5.75
2022-08-20T19:13:00.648Z,5.18
2022-08-20T19:18:54.031Z,3.25
2022-08-20T19:24:27.851Z,5.35
2022-08-20T19:29:59.364Z,3.97
2022-08-20T19:35:30.646Z,3.85
2022-08-20T19:41:11.345Z,4.25
2022-08-20T19:46:45.667Z,3.47
2022-08-20T19:52:41.916Z,6.10
2022-08-20T19:58:26.597Z,4.55
2022-08-20T20:04:07.286Z,7.18
2022-08-20T20:09:40.873Z,3.75
2022-08-20T20:15:12.394Z,3.53
2022-08-20T20:20:57.850Z,3.83
2022-08-20T20:26:41.180Z,3.80
2022-08-20T20:32:22.591Z,4.63
2022-08-20T20:38:09.137Z,4.70
2022-08-20T20:43:42.365Z,4.43
2022-08-20T20:49:24.469Z,4.32
2022-08-20T20:55:15.925Z,3.83
2022-08-20T21:00:46.806Z,4.72
2022-08-20T21:06:20.454Z,5.38
2022-08-20T21:11:52.071Z,4.15
2022-08-20T21:17:23.365Z,4.70
2022-08-20T21:22:54.668Z,4.15
2022-08-20T21:28:28.243Z,4.10
2022-08-20T21:33:59.700Z,4.10
2022-08-20T21:39:30.688Z,3.65
2022-08-20T21:45:02.243Z,3.97
2022-08-20T21:50:33.679Z,5.28
2022-08-20T21:56:05.132Z,7.03
2022-08-20T22:01:38.427Z,4.28
2022-08-20T22:07:10.806Z,5.05
2022-08-20T22:12:42.008Z,3.63
2022-08-20T22:18:13.270Z,4.60
2022-08-20T22:23:44.711Z,5.82
2022-08-20T22:29:16.235Z,4.57
2022-08-20T22:34:47.581Z,4.28
2022-08-20T22:40:18.613Z,5.25
2022-08-20T22:45:53.266Z,5.03
2022-08-20T22:51:28.547Z,5.97
2022-08-20T22:57:01.193Z,5.78
2022-08-20T23:02:32.186Z,14.27
2022-08-20T23:08:06.025Z,5.88
2022-08-20T23:13:37.706Z,5.70
2022-08-20T23:19:09.993Z,5.10
2022-08-20T23:24:41.352Z,4.75
2022-08-20T23:30:13.275Z,7.25
2022-08-20T23:35:45.139Z,5.40
2022-08-20T23:41:16.531Z,5.33
2022-08-20T23:46:47.837Z,5.10
2022-08-20T23:52:18.981Z,5.82
2022-08-20T23:57:50.803Z,5.15
